sensor_id;sensor_type;location;lat;lon;timestamp;P1;durP1;ratioP1;P2;durP2;ratioP2
18997;SDS011;9632;51.018;4.284;2024-01-30T00:01:29;11.13;;;5.32;;
18997;SDS011;9632;51.018;4.284;2024-01-30T00:03:54;10.65;;;5.60;;
18997;SDS011;9632;51.018;4.284;2024-01-30T00:06:20;11.43;;;5.57;;
18997;SDS011;9632;51.018;4.284;2024-01-30T00:08:46;12.52;;;5.55;;
18997;SDS011;9632;51.018;4.284;2024-01-30T00:11:14;12.40;;;5.65;;
18997;SDS011;9632;51.018;4.284;2024-01-30T00:13:40;10.93;;;5.15;;
18997;SDS011;9632;51.018;4.284;2024-01-30T00:16:06;9.88;;;5.07;;
18997;SDS011;9632;51.018;4.284;2024-01-30T00:18:33;10.13;;;5.50;;
18997;SDS011;9632;51.018;4.284;2024-01-30T00:20:58;9.15;;;5.20;;
18997;SDS011;9632;51.018;4.284;2024-01-30T00:23:24;12.13;;;5.78;;
18997;SDS011;9632;51.018;4.284;2024-01-30T00:25:50;10.70;;;5.85;;
18997;SDS011;9632;51.018;4.284;2024-01-30T00:28:16;10.63;;;5.63;;
18997;SDS011;9632;51.018;4.284;2024-01-30T00:30:41;12.18;;;5.63;;
18997;SDS011;9632;51.018;4.284;2024-01-30T00:33:08;13.60;;;5.97;;
18997;SDS011;9632;51.018;4.284;2024-01-30T00:35:34;11.90;;;5.97;;
18997;SDS011;9632;51.018;4.284;2024-01-30T00:38:00;14.75;;;5.78;;
18997;SDS011;9632;51.018;4.284;2024-01-30T00:40:26;12.65;;;5.57;;
18997;SDS011;9632;51.018;4.284;2024-01-30T00:42:51;9.73;;;5.50;;
18997;SDS011;9632;51.018;4.284;2024-01-30T00:45:17;12.50;;;5.57;;
18997;SDS011;9632;51.018;4.284;2024-01-30T00:47:43;13.00;;;6.03;;
18997;SDS011;9632;51.018;4.284;2024-01-30T00:50:09;12.65;;;5.93;;
18997;SDS011;9632;51.018;4.284;2024-01-30T00:52:36;12.30;;;6.25;;
18997;SDS011;9632;51.018;4.284;2024-01-30T00:55:02;16.90;;;6.03;;
18997;SDS011;9632;51.018;4.284;2024-01-30T00:57:28;13.88;;;6.00;;
18997;SDS011;9632;51.018;4.284;2024-01-30T00:59:54;13.73;;;6.25;;
18997;SDS011;9632;51.018;4.284;2024-01-30T01:02:20;12.50;;;6.10;;
18997;SDS011;9632;51.018;4.284;2024-01-30T01:04:45;10.55;;;5.75;;
18997;SDS011;9632;51.018;4.284;2024-01-30T01:07:11;15.95;;;5.35;;
18997;SDS011;9632;51.018;4.284;2024-01-30T01:09:37;15.32;;;6.55;;
18997;SDS011;9632;51.018;4.284;2024-01-30T01:12:03;18.23;;;6.20;;
18997;SDS011;9632;51.018;4.284;2024-01-30T01:14:29;12.27;;;5.82;;
18997;SDS011;9632;51.018;4.284;2024-01-30T01:16:55;16.10;;;6.10;;
18997;SDS011;9632;51.018;4.284;2024-01-30T01:19:21;12.75;;;6.18;;
18997;SDS011;9632;51.018;4.284;2024-01-30T01:21:47;11.10;;;5.53;;
18997;SDS011;9632;51.018;4.284;2024-01-30T01:24:12;12.35;;;5.53;;
18997;SDS011;9632;51.018;4.284;2024-01-30T01:26:38;12.55;;;5.88;;
18997;SDS011;9632;51.018;4.284;2024-01-30T01:29:04;10.68;;;5.82;;
18997;SDS011;9632;51.018;4.284;2024-01-30T01:31:35;15.52;;;5.85;;
18997;SDS011;9632;51.018;4.284;2024-01-30T01:34:05;11.50;;;5.35;;
18997;SDS011;9632;51.018;4.284;2024-01-30T01:36:31;9.68;;;5.10;;
18997;SDS011;9632;51.018;4.284;2024-01-30T01:38:56;12.60;;;6.57;;
18997;SDS011;9632;51.018;4.284;2024-01-30T01:41:22;14.23;;;5.63;;
18997;SDS011;9632;51.018;4.284;2024-01-30T01:43:48;13.43;;;5.78;;
18997;SDS011;9632;51.018;4.284;2024-01-30T01:46:13;12.27;;;5.90;;
18997;SDS011;9632;51.018;4.284;2024-01-30T01:48:40;11.88;;;5.57;;
18997;SDS011;9632;51.018;4.284;2024-01-30T01:51:07;11.00;;;5.47;;
18997;SDS011;9632;51.018;4.284;2024-01-30T01:53:34;14.43;;;5.38;;
18997;SDS011;9632;51.018;4.284;2024-01-30T01:56:00;11.77;;;6.18;;
18997;SDS011;9632;51.018;4.284;2024-01-30T01:58:26;15.85;;;6.38;;
18997;SDS011;9632;51.018;4.284;2024-01-30T02:00:54;15.90;;;6.07;;
18997;SDS011;9632;51.018;4.284;2024-01-30T02:03:21;11.65;;;5.60;;
18997;SDS011;9632;51.018;4.284;2024-01-30T02:05:47;12.40;;;5.97;;
18997;SDS011;9632;51.018;4.284;2024-01-30T02:08:13;11.45;;;5.50;;
18997;SDS011;9632;51.018;4.284;2024-01-30T02:10:38;12.25;;;6.15;;
18997;SDS011;9632;51.018;4.284;2024-01-30T02:13:04;13.30;;;6.25;;
18997;SDS011;9632;51.018;4.284;2024-01-30T02:15:30;12.68;;;5.85;;
18997;SDS011;9632;51.018;4.284;2024-01-30T02:17:55;11.63;;;5.43;;
18997;SDS011;9632;51.018;4.284;2024-01-30T02:20:21;10.07;;;5.22;;
18997;SDS011;9632;51.018;4.284;2024-01-30T02:22:50;11.95;;;5.78;;
18997;SDS011;9632;51.018;4.284;2024-01-30T02:25:17;12.75;;;5.30;;
18997;SDS011;9632;51.018;4.284;2024-01-30T02:27:43;13.98;;;5.63;;
18997;SDS011;9632;51.018;4.284;2024-01-30T02:30:09;14.38;;;5.85;;
18997;SDS011;9632;51.018;4.284;2024-01-30T02:32:35;11.82;;;5.65;;
18997;SDS011;9632;51.018;4.284;2024-01-30T02:35:01;12.20;;;5.05;;
18997;SDS011;9632;51.018;4.284;2024-01-30T02:37:27;13.38;;;5.72;;
18997;SDS011;9632;51.018;4.284;2024-01-30T02:39:53;11.48;;;5.45;;
18997;SDS011;9632;51.018;4.284;2024-01-30T02:42:18;15.55;;;6.45;;
18997;SDS011;9632;51.018;4.284;2024-01-30T02:44:44;10.18;;;5.30;;
18997;SDS011;9632;51.018;4.284;2024-01-30T02:47:09;12.43;;;5.88;;
18997;SDS011;9632;51.018;4.284;2024-01-30T02:49:35;13.70;;;5.72;;
18997;SDS011;9632;51.018;4.284;2024-01-30T02:52:01;13.25;;;5.78;;
18997;SDS011;9632;51.018;4.284;2024-01-30T02:54:26;10.25;;;5.40;;
18997;SDS011;9632;51.018;4.284;2024-01-30T02:56:52;12.95;;;5.28;;
18997;SDS011;9632;51.018;4.284;2024-01-30T02:59:18;12.43;;;5.88;;
18997;SDS011;9632;51.018;4.284;2024-01-30T03:01:43;9.32;;;5.05;;
18997;SDS011;9632;51.018;4.284;2024-01-30T03:04:09;13.73;;;6.03;;
18997;SDS011;9632;51.018;4.284;2024-01-30T03:06:36;11.68;;;6.43;;
18997;SDS011;9632;51.018;4.284;2024-01-30T03:09:02;12.85;;;5.50;;
18997;SDS011;9632;51.018;4.284;2024-01-30T03:11:28;16.05;;;6.53;;
18997;SDS011;9632;51.018;4.284;2024-01-30T03:13:53;15.80;;;6.53;;
18997;SDS011;9632;51.018;4.284;2024-01-30T03:16:19;15.15;;;6.97;;
18997;SDS011;9632;51.018;4.284;2024-01-30T03:18:45;12.32;;;5.78;;
18997;SDS011;9632;51.018;4.284;2024-01-30T03:21:10;15.85;;;6.30;;
18997;SDS011;9632;51.018;4.284;2024-01-30T03:23:36;16.40;;;6.07;;
18997;SDS011;9632;51.018;4.284;2024-01-30T03:26:01;12.02;;;5.60;;
18997;SDS011;9632;51.018;4.284;2024-01-30T03:28:29;13.15;;;6.05;;
18997;SDS011;9632;51.018;4.284;2024-01-30T03:30:55;12.10;;;5.72;;
18997;SDS011;9632;51.018;4.284;2024-01-30T03:33:20;12.60;;;5.93;;
18997;SDS011;9632;51.018;4.284;2024-01-30T03:35:46;14.70;;;5.65;;
18997;SDS011;9632;51.018;4.284;2024-01-30T03:38:12;11.63;;;5.80;;
18997;SDS011;9632;51.018;4.284;2024-01-30T03:40:37;14.57;;;5.88;;
18997;SDS011;9632;51.018;4.284;2024-01-30T03:43:03;13.82;;;6.05;;
18997;SDS011;9632;51.018;4.284;2024-01-30T03:45:30;13.52;;;5.28;;
18997;SDS011;9632;51.018;4.284;2024-01-30T03:47:55;13.88;;;5.43;;
18997;SDS011;9632;51.018;4.284;2024-01-30T03:50:21;11.98;;;5.70;;
18997;SDS011;9632;51.018;4.284;2024-01-30T03:52:47;12.77;;;5.70;;
18997;SDS011;9632;51.018;4.284;2024-01-30T03:55:12;10.15;;;5.40;;
18997;SDS011;9632;51.018;4.284;2024-01-30T03:57:38;13.80;;;5.60;;
18997;SDS011;9632;51.018;4.284;2024-01-30T04:00:04;14.57;;;5.63;;
18997;SDS011;9632;51.018;4.284;2024-01-30T04:02:30;15.20;;;5.32;;
18997;SDS011;9632;51.018;4.284;2024-01-30T04:04:55;11.93;;;5.72;;
18997;SDS011;9632;51.018;4.284;2024-01-30T04:07:21;14.75;;;5.88;;
18997;SDS011;9632;51.018;4.284;2024-01-30T04:09:47;13.90;;;6.00;;
18997;SDS011;9632;51.018;4.284;2024-01-30T04:12:12;13.40;;;5.55;;
18997;SDS011;9632;51.018;4.284;2024-01-30T04:14:39;15.73;;;5.80;;
18997;SDS011;9632;51.018;4.284;2024-01-30T04:17:04;10.77;;;5.35;;
18997;SDS011;9632;51.018;4.284;2024-01-30T04:19:30;16.23;;;6.18;;
18997;SDS011;9632;51.018;4.284;2024-01-30T04:21:56;11.18;;;4.93;;
18997;SDS011;9632;51.018;4.284;2024-01-30T04:24:21;12.10;;;5.47;;
18997;SDS011;9632;51.018;4.284;2024-01-30T04:26:47;12.23;;;5.70;;
18997;SDS011;9632;51.018;4.284;2024-01-30T04:29:12;14.00;;;5.57;;
18997;SDS011;9632;51.018;4.284;2024-01-30T04:31:38;14.20;;;5.75;;
18997;SDS011;9632;51.018;4.284;2024-01-30T04:34:04;13.35;;;5.70;;
18997;SDS011;9632;51.018;4.284;2024-01-30T04:36:29;11.60;;;5.35;;
18997;SDS011;9632;51.018;4.284;2024-01-30T04:38:55;12.27;;;5.07;;
18997;SDS011;9632;51.018;4.284;2024-01-30T04:41:20;9.68;;;5.50;;
18997;SDS011;9632;51.018;4.284;2024-01-30T04:43:46;11.23;;;4.97;;
18997;SDS011;9632;51.018;4.284;2024-01-30T04:46:12;14.35;;;5.78;;
18997;SDS011;9632;51.018;4.284;2024-01-30T04:48:37;10.25;;;5.20;;
18997;SDS011;9632;51.018;4.284;2024-01-30T04:51:03;10.70;;;5.22;;
18997;SDS011;9632;51.018;4.284;2024-01-30T04:53:30;13.32;;;5.57;;
18997;SDS011;9632;51.018;4.284;2024-01-30T04:55:56;16.88;;;6.53;;
18997;SDS011;9632;51.018;4.284;2024-01-30T04:58:22;19.52;;;6.20;;
18997;SDS011;9632;51.018;4.284;2024-01-30T05:00:47;13.30;;;5.72;;
18997;SDS011;9632;51.018;4.284;2024-01-30T05:03:16;16.58;;;5.88;;
18997;SDS011;9632;51.018;4.284;2024-01-30T05:05:42;13.20;;;5.65;;
18997;SDS011;9632;51.018;4.284;2024-01-30T05:08:08;14.80;;;5.72;;
18997;SDS011;9632;51.018;4.284;2024-01-30T05:10:34;16.67;;;6.65;;
18997;SDS011;9632;51.018;4.284;2024-01-30T05:12:59;17.65;;;6.80;;
18997;SDS011;9632;51.018;4.284;2024-01-30T05:15:25;15.25;;;6.03;;
18997;SDS011;9632;51.018;4.284;2024-01-30T05:17:51;14.63;;;6.35;;
18997;SDS011;9632;51.018;4.284;2024-01-30T05:20:16;14.43;;;6.25;;
18997;SDS011;9632;51.018;4.284;2024-01-30T05:22:43;15.85;;;6.30;;
18997;SDS011;9632;51.018;4.284;2024-01-30T05:25:10;15.27;;;6.25;;
18997;SDS011;9632;51.018;4.284;2024-01-30T05:27:37;17.20;;;6.40;;
18997;SDS011;9632;51.018;4.284;2024-01-30T05:30:02;15.52;;;6.70;;
18997;SDS011;9632;51.018;4.284;2024-01-30T05:32:29;16.38;;;6.80;;
18997;SDS011;9632;51.018;4.284;2024-01-30T05:34:55;15.68;;;6.75;;
18997;SDS011;9632;51.018;4.284;2024-01-30T05:37:20;17.55;;;6.75;;
18997;SDS011;9632;51.018;4.284;2024-01-30T05:39:46;19.98;;;6.50;;
18997;SDS011;9632;51.018;4.284;2024-01-30T05:42:12;17.63;;;6.90;;
18997;SDS011;9632;51.018;4.284;2024-01-30T05:44:37;18.10;;;6.80;;
18997;SDS011;9632;51.018;4.284;2024-01-30T05:47:03;15.30;;;6.28;;
18997;SDS011;9632;51.018;4.284;2024-01-30T05:49:29;17.35;;;6.60;;
18997;SDS011;9632;51.018;4.284;2024-01-30T05:51:55;19.05;;;6.90;;
18997;SDS011;9632;51.018;4.284;2024-01-30T05:54:20;16.23;;;7.05;;
18997;SDS011;9632;51.018;4.284;2024-01-30T05:56:46;16.80;;;6.10;;
18997;SDS011;9632;51.018;4.284;2024-01-30T05:59:12;16.30;;;6.95;;
18997;SDS011;9632;51.018;4.284;2024-01-30T06:01:37;20.98;;;6.80;;
18997;SDS011;9632;51.018;4.284;2024-01-30T06:04:03;19.17;;;7.15;;
18997;SDS011;9632;51.018;4.284;2024-01-30T06:06:29;20.40;;;7.57;;
18997;SDS011;9632;51.018;4.284;2024-01-30T06:08:54;21.35;;;7.30;;
18997;SDS011;9632;51.018;4.284;2024-01-30T06:11:21;18.90;;;6.53;;
18997;SDS011;9632;51.018;4.284;2024-01-30T06:13:46;18.70;;;7.15;;
18997;SDS011;9632;51.018;4.284;2024-01-30T06:16:12;22.73;;;6.85;;
18997;SDS011;9632;51.018;4.284;2024-01-30T06:18:38;21.25;;;7.13;;
18997;SDS011;9632;51.018;4.284;2024-01-30T06:21:04;19.95;;;7.53;;
18997;SDS011;9632;51.018;4.284;2024-01-30T06:23:30;17.00;;;6.70;;
18997;SDS011;9632;51.018;4.284;2024-01-30T06:25:55;20.05;;;7.10;;
18997;SDS011;9632;51.018;4.284;2024-01-30T06:28:21;18.60;;;6.82;;
18997;SDS011;9632;51.018;4.284;2024-01-30T06:30:47;20.42;;;7.68;;
18997;SDS011;9632;51.018;4.284;2024-01-30T06:33:12;16.88;;;7.20;;
18997;SDS011;9632;51.018;4.284;2024-01-30T06:35:38;22.13;;;7.35;;
18997;SDS011;9632;51.018;4.284;2024-01-30T06:38:05;22.63;;;8.00;;
18997;SDS011;9632;51.018;4.284;2024-01-30T06:40:31;18.58;;;7.25;;
18997;SDS011;9632;51.018;4.284;2024-01-30T06:42:57;24.98;;;7.78;;
18997;SDS011;9632;51.018;4.284;2024-01-30T06:45:22;23.58;;;7.93;;
18997;SDS011;9632;51.018;4.284;2024-01-30T06:47:48;25.95;;;7.72;;
18997;SDS011;9632;51.018;4.284;2024-01-30T06:50:13;20.63;;;7.82;;
18997;SDS011;9632;51.018;4.284;2024-01-30T06:52:39;21.42;;;6.95;;
18997;SDS011;9632;51.018;4.284;2024-01-30T06:55:05;21.75;;;7.75;;
18997;SDS011;9632;51.018;4.284;2024-01-30T06:57:31;24.67;;;7.97;;
18997;SDS011;9632;51.018;4.284;2024-01-30T06:59:57;25.10;;;8.10;;
18997;SDS011;9632;51.018;4.284;2024-01-30T07:02:22;23.02;;;8.25;;
18997;SDS011;9632;51.018;4.284;2024-01-30T07:04:48;23.92;;;8.10;;
18997;SDS011;9632;51.018;4.284;2024-01-30T07:07:14;29.90;;;8.32;;
18997;SDS011;9632;51.018;4.284;2024-01-30T07:09:40;24.90;;;8.77;;
18997;SDS011;9632;51.018;4.284;2024-01-30T07:12:06;27.25;;;8.30;;
18997;SDS011;9632;51.018;4.284;2024-01-30T07:14:32;25.92;;;8.88;;
18997;SDS011;9632;51.018;4.284;2024-01-30T07:16:58;27.75;;;8.48;;
18997;SDS011;9632;51.018;4.284;2024-01-30T07:19:23;29.10;;;8.70;;
18997;SDS011;9632;51.018;4.284;2024-01-30T07:21:49;27.83;;;9.13;;
18997;SDS011;9632;51.018;4.284;2024-01-30T07:24:15;30.17;;;8.98;;
18997;SDS011;9632;51.018;4.284;2024-01-30T07:26:40;21.48;;;8.15;;
18997;SDS011;9632;51.018;4.284;2024-01-30T07:29:06;23.13;;;7.18;;
18997;SDS011;9632;51.018;4.284;2024-01-30T07:31:32;24.77;;;8.35;;
18997;SDS011;9632;51.018;4.284;2024-01-30T07:33:57;28.08;;;8.88;;
18997;SDS011;9632;51.018;4.284;2024-01-30T07:36:23;26.58;;;8.88;;
18997;SDS011;9632;51.018;4.284;2024-01-30T07:38:48;20.95;;;8.00;;
18997;SDS011;9632;51.018;4.284;2024-01-30T07:41:14;25.55;;;7.75;;
18997;SDS011;9632;51.018;4.284;2024-01-30T07:43:40;18.45;;;7.28;;
18997;SDS011;9632;51.018;4.284;2024-01-30T07:46:06;16.88;;;7.03;;
18997;SDS011;9632;51.018;4.284;2024-01-30T07:48:34;19.02;;;7.10;;
18997;SDS011;9632;51.018;4.284;2024-01-30T07:51:00;14.45;;;6.80;;
18997;SDS011;9632;51.018;4.284;2024-01-30T07:53:25;16.75;;;7.50;;
18997;SDS011;9632;51.018;4.284;2024-01-30T07:55:52;19.10;;;7.38;;
18997;SDS011;9632;51.018;4.284;2024-01-30T07:58:17;22.98;;;9.27;;
18997;SDS011;9632;51.018;4.284;2024-01-30T08:00:44;14.90;;;6.72;;
18997;SDS011;9632;51.018;4.284;2024-01-30T08:03:10;14.18;;;6.75;;
18997;SDS011;9632;51.018;4.284;2024-01-30T08:05:35;12.43;;;6.13;;
18997;SDS011;9632;51.018;4.284;2024-01-30T08:08:01;27.00;;;9.95;;
18997;SDS011;9632;51.018;4.284;2024-01-30T08:10:27;21.70;;;8.32;;
18997;SDS011;9632;51.018;4.284;2024-01-30T08:12:53;12.43;;;5.95;;
18997;SDS011;9632;51.018;4.284;2024-01-30T08:15:18;14.98;;;6.28;;
18997;SDS011;9632;51.018;4.284;2024-01-30T08:17:44;13.02;;;6.10;;
18997;SDS011;9632;51.018;4.284;2024-01-30T08:20:10;17.98;;;7.50;;
18997;SDS011;9632;51.018;4.284;2024-01-30T08:22:38;20.17;;;6.97;;
18997;SDS011;9632;51.018;4.284;2024-01-30T08:25:05;14.65;;;6.63;;
18997;SDS011;9632;51.018;4.284;2024-01-30T08:27:31;12.27;;;6.22;;
18997;SDS011;9632;51.018;4.284;2024-01-30T08:29:57;13.75;;;6.10;;
18997;SDS011;9632;51.018;4.284;2024-01-30T08:32:23;15.32;;;6.07;;
18997;SDS011;9632;51.018;4.284;2024-01-30T08:34:49;11.93;;;5.82;;
18997;SDS011;9632;51.018;4.284;2024-01-30T08:37:14;13.60;;;5.43;;
18997;SDS011;9632;51.018;4.284;2024-01-30T08:39:41;12.57;;;6.15;;
18997;SDS011;9632;51.018;4.284;2024-01-30T08:42:08;15.98;;;6.00;;
18997;SDS011;9632;51.018;4.284;2024-01-30T08:44:34;15.35;;;7.50;;
18997;SDS011;9632;51.018;4.284;2024-01-30T08:46:59;13.80;;;7.03;;
18997;SDS011;9632;51.018;4.284;2024-01-30T08:49:25;12.60;;;6.35;;
18997;SDS011;9632;51.018;4.284;2024-01-30T08:51:50;13.05;;;5.63;;
18997;SDS011;9632;51.018;4.284;2024-01-30T08:54:16;15.18;;;5.97;;
18997;SDS011;9632;51.018;4.284;2024-01-30T08:56:42;11.52;;;5.95;;
18997;SDS011;9632;51.018;4.284;2024-01-30T08:59:08;12.38;;;6.15;;
18997;SDS011;9632;51.018;4.284;2024-01-30T09:01:33;13.63;;;5.80;;
18997;SDS011;9632;51.018;4.284;2024-01-30T09:03:59;12.38;;;5.90;;
18997;SDS011;9632;51.018;4.284;2024-01-30T09:06:25;17.55;;;6.43;;
18997;SDS011;9632;51.018;4.284;2024-01-30T09:08:53;14.07;;;6.25;;
18997;SDS011;9632;51.018;4.284;2024-01-30T09:11:18;17.35;;;6.38;;
18997;SDS011;9632;51.018;4.284;2024-01-30T09:13:44;14.40;;;6.68;;
18997;SDS011;9632;51.018;4.284;2024-01-30T09:16:10;11.88;;;5.95;;
18997;SDS011;9632;51.018;4.284;2024-01-30T09:18:35;15.57;;;6.07;;
18997;SDS011;9632;51.018;4.284;2024-01-30T09:21:01;13.68;;;6.82;;
18997;SDS011;9632;51.018;4.284;2024-01-30T09:23:28;12.55;;;6.55;;
18997;SDS011;9632;51.018;4.284;2024-01-30T09:25:53;14.77;;;6.50;;
18997;SDS011;9632;51.018;4.284;2024-01-30T09:28:20;17.40;;;6.57;;
18997;SDS011;9632;51.018;4.284;2024-01-30T09:30:45;13.60;;;6.85;;
18997;SDS011;9632;51.018;4.284;2024-01-30T09:33:11;15.77;;;7.45;;
18997;SDS011;9632;51.018;4.284;2024-01-30T09:35:37;19.55;;;7.47;;
18997;SDS011;9632;51.018;4.284;2024-01-30T09:38:02;17.98;;;7.80;;
18997;SDS011;9632;51.018;4.284;2024-01-30T09:40:28;14.63;;;7.13;;
18997;SDS011;9632;51.018;4.284;2024-01-30T09:42:54;16.08;;;7.35;;
18997;SDS011;9632;51.018;4.284;2024-01-30T09:45:23;14.57;;;7.32;;
18997;SDS011;9632;51.018;4.284;2024-01-30T09:47:50;18.02;;;7.90;;
18997;SDS011;9632;51.018;4.284;2024-01-30T09:50:16;13.93;;;7.05;;
18997;SDS011;9632;51.018;4.284;2024-01-30T09:52:42;17.83;;;7.45;;
18997;SDS011;9632;51.018;4.284;2024-01-30T09:55:12;17.63;;;7.90;;
18997;SDS011;9632;51.018;4.284;2024-01-30T09:57:38;16.98;;;6.75;;
18997;SDS011;9632;51.018;4.284;2024-01-30T10:00:04;18.77;;;7.50;;
18997;SDS011;9632;51.018;4.284;2024-01-30T10:02:33;17.30;;;6.93;;
18997;SDS011;9632;51.018;4.284;2024-01-30T10:05:00;15.75;;;6.95;;
18997;SDS011;9632;51.018;4.284;2024-01-30T10:07:26;15.48;;;6.30;;
18997;SDS011;9632;51.018;4.284;2024-01-30T10:09:52;13.85;;;5.72;;
18997;SDS011;9632;51.018;4.284;2024-01-30T10:12:18;10.93;;;5.60;;
18997;SDS011;9632;51.018;4.284;2024-01-30T10:14:44;17.73;;;6.05;;
18997;SDS011;9632;51.018;4.284;2024-01-30T10:17:10;15.88;;;6.20;;
18997;SDS011;9632;51.018;4.284;2024-01-30T10:19:37;14.27;;;5.53;;
18997;SDS011;9632;51.018;4.284;2024-01-30T10:22:04;15.38;;;6.22;;
18997;SDS011;9632;51.018;4.284;2024-01-30T10:24:30;11.90;;;5.65;;
18997;SDS011;9632;51.018;4.284;2024-01-30T10:26:56;16.00;;;5.10;;
18997;SDS011;9632;51.018;4.284;2024-01-30T10:29:22;15.02;;;5.15;;
18997;SDS011;9632;51.018;4.284;2024-01-30T10:32:00;12.02;;;5.22;;
18997;SDS011;9632;51.018;4.284;2024-01-30T10:34:27;12.00;;;4.38;;
18997;SDS011;9632;51.018;4.284;2024-01-30T10:36:59;12.27;;;4.88;;
18997;SDS011;9632;51.018;4.284;2024-01-30T10:39:31;21.73;;;4.30;;
18997;SDS011;9632;51.018;4.284;2024-01-30T10:42:03;11.55;;;3.90;;
18997;SDS011;9632;51.018;4.284;2024-01-30T10:44:33;9.43;;;3.42;;
18997;SDS011;9632;51.018;4.284;2024-01-30T10:47:06;8.35;;;1.90;;
18997;SDS011;9632;51.018;4.284;2024-01-30T10:49:33;8.13;;;2.35;;
18997;SDS011;9632;51.018;4.284;2024-01-30T10:51:59;4.90;;;1.48;;
18997;SDS011;9632;51.018;4.284;2024-01-30T10:54:26;5.78;;;1.17;;
18997;SDS011;9632;51.018;4.284;2024-01-30T10:56:52;4.85;;;0.98;;
18997;SDS011;9632;51.018;4.284;2024-01-30T10:59:18;5.93;;;0.98;;
18997;SDS011;9632;51.018;4.284;2024-01-30T11:01:45;8.38;;;1.13;;
18997;SDS011;9632;51.018;4.284;2024-01-30T11:04:11;5.72;;;0.80;;
18997;SDS011;9632;51.018;4.284;2024-01-30T11:06:41;2.97;;;0.70;;
18997;SDS011;9632;51.018;4.284;2024-01-30T11:09:10;3.80;;;0.60;;
18997;SDS011;9632;51.018;4.284;2024-01-30T11:11:56;6.82;;;1.05;;
18997;SDS011;9632;51.018;4.284;2024-01-30T11:14:27;4.88;;;0.60;;
18997;SDS011;9632;51.018;4.284;2024-01-30T11:16:58;6.28;;;0.70;;
18997;SDS011;9632;51.018;4.284;2024-01-30T11:19:25;4.82;;;0.57;;
18997;SDS011;9632;51.018;4.284;2024-01-30T11:21:54;3.90;;;0.65;;
18997;SDS011;9632;51.018;4.284;2024-01-30T11:24:22;7.13;;;0.63;;
18997;SDS011;9632;51.018;4.284;2024-01-30T11:26:57;3.00;;;0.40;;
18997;SDS011;9632;51.018;4.284;2024-01-30T11:29:27;3.60;;;0.52;;
18997;SDS011;9632;51.018;4.284;2024-01-30T11:31:57;4.72;;;0.50;;
18997;SDS011;9632;51.018;4.284;2024-01-30T11:34:23;3.00;;;0.43;;
18997;SDS011;9632;51.018;4.284;2024-01-30T11:36:53;5.70;;;0.52;;
18997;SDS011;9632;51.018;4.284;2024-01-30T11:39:24;2.22;;;0.40;;
18997;SDS011;9632;51.018;4.284;2024-01-30T11:41:55;6.63;;;0.50;;
18997;SDS011;9632;51.018;4.284;2024-01-30T11:44:21;2.92;;;0.47;;
18997;SDS011;9632;51.018;4.284;2024-01-30T11:46:48;3.50;;;0.50;;
18997;SDS011;9632;51.018;4.284;2024-01-30T11:49:14;2.55;;;0.60;;
18997;SDS011;9632;51.018;4.284;2024-01-30T11:51:40;4.00;;;0.40;;
18997;SDS011;9632;51.018;4.284;2024-01-30T11:54:07;7.00;;;0.60;;
18997;SDS011;9632;51.018;4.284;2024-01-30T11:56:33;4.25;;;0.43;;
18997;SDS011;9632;51.018;4.284;2024-01-30T11:58:58;3.22;;;0.38;;
18997;SDS011;9632;51.018;4.284;2024-01-30T12:01:25;8.00;;;0.70;;
18997;SDS011;9632;51.018;4.284;2024-01-30T12:03:51;3.60;;;0.70;;
18997;SDS011;9632;51.018;4.284;2024-01-30T12:06:17;4.32;;;0.50;;
18997;SDS011;9632;51.018;4.284;2024-01-30T12:08:43;2.22;;;0.52;;
18997;SDS011;9632;51.018;4.284;2024-01-30T12:11:26;4.18;;;0.60;;
18997;SDS011;9632;51.018;4.284;2024-01-30T12:13:55;4.28;;;0.63;;
18997;SDS011;9632;51.018;4.284;2024-01-30T12:16:21;5.40;;;1.00;;
18997;SDS011;9632;51.018;4.284;2024-01-30T12:18:47;3.55;;;0.43;;
18997;SDS011;9632;51.018;4.284;2024-01-30T12:21:16;8.05;;;0.98;;
18997;SDS011;9632;51.018;4.284;2024-01-30T12:23:43;5.13;;;0.77;;
18997;SDS011;9632;51.018;4.284;2024-01-30T12:26:09;2.80;;;0.57;;
18997;SDS011;9632;51.018;4.284;2024-01-30T12:28:35;3.60;;;0.60;;
18997;SDS011;9632;51.018;4.284;2024-01-30T12:31:04;4.18;;;0.70;;
18997;SDS011;9632;51.018;4.284;2024-01-30T12:33:29;4.72;;;0.60;;
18997;SDS011;9632;51.018;4.284;2024-01-30T12:35:56;4.47;;;0.70;;
18997;SDS011;9632;51.018;4.284;2024-01-30T12:38:24;3.03;;;0.60;;
18997;SDS011;9632;51.018;4.284;2024-01-30T12:40:52;3.92;;;0.75;;
18997;SDS011;9632;51.018;4.284;2024-01-30T12:43:20;5.22;;;0.70;;
18997;SDS011;9632;51.018;4.284;2024-01-30T12:45:47;2.42;;;0.50;;
18997;SDS011;9632;51.018;4.284;2024-01-30T12:48:12;2.30;;;0.47;;
18997;SDS011;9632;51.018;4.284;2024-01-30T12:50:38;6.75;;;0.60;;
18997;SDS011;9632;51.018;4.284;2024-01-30T12:53:03;3.08;;;0.40;;
18997;SDS011;9632;51.018;4.284;2024-01-30T12:55:30;3.58;;;0.60;;
18997;SDS011;9632;51.018;4.284;2024-01-30T12:57:56;4.78;;;1.02;;
18997;SDS011;9632;51.018;4.284;2024-01-30T13:00:22;5.55;;;0.50;;
18997;SDS011;9632;51.018;4.284;2024-01-30T13:02:48;5.22;;;0.55;;
18997;SDS011;9632;51.018;4.284;2024-01-30T13:05:13;8.52;;;0.60;;
18997;SDS011;9632;51.018;4.284;2024-01-30T13:07:39;9.07;;;1.10;;
18997;SDS011;9632;51.018;4.284;2024-01-30T13:10:05;3.25;;;0.57;;
18997;SDS011;9632;51.018;4.284;2024-01-30T13:12:31;4.32;;;0.73;;
18997;SDS011;9632;51.018;4.284;2024-01-30T13:15:00;3.28;;;0.60;;
18997;SDS011;9632;51.018;4.284;2024-01-30T13:17:26;4.60;;;0.68;;
18997;SDS011;9632;51.018;4.284;2024-01-30T13:19:52;2.72;;;0.70;;
18997;SDS011;9632;51.018;4.284;2024-01-30T13:22:19;5.40;;;0.65;;
18997;SDS011;9632;51.018;4.284;2024-01-30T13:24:48;6.03;;;0.65;;
18997;SDS011;9632;51.018;4.284;2024-01-30T13:27:14;6.35;;;0.82;;
18997;SDS011;9632;51.018;4.284;2024-01-30T13:29:39;4.78;;;0.80;;
18997;SDS011;9632;51.018;4.284;2024-01-30T13:32:05;8.43;;;0.90;;
18997;SDS011;9632;51.018;4.284;2024-01-30T13:34:31;3.72;;;0.90;;
18997;SDS011;9632;51.018;4.284;2024-01-30T13:36:57;3.10;;;0.60;;
18997;SDS011;9632;51.018;4.284;2024-01-30T13:39:22;6.70;;;0.90;;
18997;SDS011;9632;51.018;4.284;2024-01-30T13:41:48;9.82;;;1.15;;
18997;SDS011;9632;51.018;4.284;2024-01-30T13:44:15;4.72;;;0.90;;
18997;SDS011;9632;51.018;4.284;2024-01-30T13:46:42;5.47;;;0.70;;
18997;SDS011;9632;51.018;4.284;2024-01-30T13:49:08;3.53;;;0.52;;
18997;SDS011;9632;51.018;4.284;2024-01-30T13:51:34;3.05;;;0.50;;
18997;SDS011;9632;51.018;4.284;2024-01-30T13:53:59;4.25;;;0.65;;
18997;SDS011;9632;51.018;4.284;2024-01-30T13:56:25;5.13;;;0.63;;
18997;SDS011;9632;51.018;4.284;2024-01-30T13:58:51;2.15;;;0.50;;
18997;SDS011;9632;51.018;4.284;2024-01-30T14:01:17;7.57;;;0.60;;
18997;SDS011;9632;51.018;4.284;2024-01-30T14:03:43;2.95;;;0.65;;
18997;SDS011;9632;51.018;4.284;2024-01-30T14:06:09;4.72;;;0.60;;
18997;SDS011;9632;51.018;4.284;2024-01-30T14:08:34;3.70;;;0.60;;
18997;SDS011;9632;51.018;4.284;2024-01-30T14:11:00;7.80;;;0.75;;
18997;SDS011;9632;51.018;4.284;2024-01-30T14:13:26;4.95;;;0.52;;
18997;SDS011;9632;51.018;4.284;2024-01-30T14:15:51;3.40;;;0.60;;
18997;SDS011;9632;51.018;4.284;2024-01-30T14:18:18;7.03;;;0.82;;
18997;SDS011;9632;51.018;4.284;2024-01-30T14:20:43;3.42;;;0.35;;
18997;SDS011;9632;51.018;4.284;2024-01-30T14:23:09;3.20;;;0.50;;
18997;SDS011;9632;51.018;4.284;2024-01-30T14:25:35;6.15;;;0.98;;
18997;SDS011;9632;51.018;4.284;2024-01-30T14:28:00;2.85;;;0.60;;
18997;SDS011;9632;51.018;4.284;2024-01-30T14:30:26;4.30;;;1.05;;
18997;SDS011;9632;51.018;4.284;2024-01-30T14:32:52;3.17;;;0.70;;
18997;SDS011;9632;51.018;4.284;2024-01-30T14:35:17;3.33;;;0.85;;
18997;SDS011;9632;51.018;4.284;2024-01-30T14:37:44;5.63;;;0.65;;
18997;SDS011;9632;51.018;4.284;2024-01-30T14:40:10;2.45;;;0.57;;
18997;SDS011;9632;51.018;4.284;2024-01-30T14:42:36;8.57;;;0.90;;
18997;SDS011;9632;51.018;4.284;2024-01-30T14:45:02;3.17;;;0.70;;